createdAt,value
2018-02-04T00:00:54.459Z,8.50
2018-02-04T00:03:22.041Z,9.23
2018-02-04T00:05:49.636Z,9.60
2018-02-04T00:08:17.216Z,8.93
2018-02-04T00:10:44.794Z,9.40
2018-02-04T00:13:12.394Z,8.03
2018-02-04T00:15:40.723Z,8.87
2018-02-04T00:18:09.243Z,8.23
2018-02-04T00:20:37.617Z,7.90
2018-02-04T00:23:05.201Z,8.37
2018-02-04T00:25:33.605Z,8.10
2018-02-04T00:28:01.193Z,8.07
2018-02-04T00:30:28.795Z,8.37
2018-02-04T00:32:56.367Z,7.50
2018-02-04T00:35:23.952Z,7.40
2018-02-04T00:37:51.512Z,7.17
2018-02-04T00:40:19.859Z,6.93
2018-02-04T00:42:47.519Z,7.10
2018-02-04T00:45:15.132Z,6.50
2018-02-04T00:47:43.454Z,6.80
2018-02-04T00:50:11.114Z,7.13
2018-02-04T00:52:38.736Z,6.90
2018-02-04T00:55:07.077Z,7.97
2018-02-04T00:57:34.688Z,7.27
2018-02-04T01:00:03.069Z,7.93
2018-02-04T01:02:31.401Z,7.40
2018-02-04T01:04:58.987Z,7.20
2018-02-04T01:07:27.363Z,7.57
2018-02-04T01:09:55.000Z,8.47
2018-02-04T01:12:23.207Z,7.43
2018-02-04T01:14:50.824Z,7.07
2018-02-04T01:17:21.399Z,7.80
2018-02-04T01:19:49.465Z,8.43
2018-02-04T01:22:17.109Z,7.67
2018-02-04T01:24:46.036Z,7.90
2018-02-04T01:27:13.600Z,8.10
2018-02-04T01:29:41.190Z,8.03
2018-02-04T01:32:08.790Z,8.23
2018-02-04T01:34:36.362Z,7.93
2018-02-04T01:37:03.943Z,8.83
2018-02-04T01:39:31.522Z,7.87
2018-02-04T01:41:59.115Z,8.60
2018-02-04T01:44:26.696Z,8.17
2018-02-04T01:46:54.313Z,7.87
2018-02-04T01:49:21.892Z,8.27
2018-02-04T01:51:49.501Z,7.50
2018-02-04T01:54:17.913Z,7.57
2018-02-04T01:56:45.555Z,7.87
2018-02-04T01:59:14.041Z,8.30
2018-02-04T02:01:42.404Z,7.50
2018-02-04T02:04:10.781Z,7.40
2018-02-04T02:06:38.390Z,7.80
2018-02-04T02:09:06.008Z,8.37
2018-02-04T02:11:34.613Z,8.20
2018-02-04T02:14:02.191Z,7.00
2018-02-04T02:16:30.672Z,6.80
2018-02-04T02:18:58.273Z,6.53
2018-02-04T02:21:25.854Z,6.70
2018-02-04T02:23:53.446Z,6.27
2018-02-04T02:26:22.392Z,6.30
2018-02-04T02:28:50.830Z,7.10
2018-02-04T02:31:19.199Z,5.97
2018-02-04T02:33:46.811Z,6.30
2018-02-04T02:36:14.463Z,6.20
2018-02-04T02:38:42.059Z,6.00
2018-02-04T02:41:09.653Z,5.90
2018-02-04T02:43:37.837Z,5.87
2018-02-04T02:46:05.431Z,5.40
2018-02-04T02:48:34.541Z,5.83
2018-02-04T02:51:03.631Z,5.93
2018-02-04T02:53:31.975Z,5.87
2018-02-04T02:55:59.585Z,6.13
2018-02-04T02:58:27.960Z,6.07
2018-02-04T03:00:56.272Z,5.97
2018-02-04T03:03:23.853Z,5.50
2018-02-04T03:05:51.474Z,5.70
2018-02-04T03:08:20.797Z,6.10
2018-02-04T03:10:48.429Z,5.43
2018-02-04T03:13:16.043Z,5.73
2018-02-04T03:15:43.646Z,5.93
2018-02-04T03:18:11.268Z,5.70
2018-02-04T03:20:40.321Z,5.90
2018-02-04T03:23:07.905Z,5.57
2018-02-04T03:25:35.538Z,5.60
2018-02-04T03:28:03.145Z,6.20
2018-02-04T03:30:31.456Z,6.27
2018-02-04T03:32:59.031Z,5.40
2018-02-04T03:35:28.403Z,5.93
2018-02-04T03:37:57.597Z,5.97
2018-02-04T03:40:25.958Z,5.90
2018-02-04T03:42:53.552Z,5.27
2018-02-04T03:45:21.134Z,5.47
2018-02-04T03:47:48.704Z,6.23
2018-02-04T03:50:16.262Z,5.77
2018-02-04T03:52:43.840Z,5.93
2018-02-04T03:55:11.438Z,5.97
2018-02-04T03:57:38.989Z,6.30
2018-02-04T04:00:06.563Z,6.50
2018-02-04T04:02:34.134Z,6.10
2018-02-04T04:05:02.489Z,6.07
2018-02-04T04:07:30.063Z,6.47
2018-02-04T04:09:57.645Z,5.93
2018-02-04T04:12:25.243Z,5.57
2018-02-04T04:14:53.575Z,5.83
2018-02-04T04:17:21.141Z,6.03
2018-02-04T04:19:48.687Z,5.77
2018-02-04T04:22:16.268Z,5.50
2018-02-04T04:24:43.843Z,5.27
2018-02-04T04:27:11.416Z,5.90
2018-02-04T04:29:38.978Z,5.73
2018-02-04T04:32:07.062Z,5.70
2018-02-04T04:34:34.650Z,5.43
2018-02-04T04:37:02.998Z,5.03
2018-02-04T04:39:30.595Z,5.03
2018-02-04T04:41:58.934Z,5.53
2018-02-04T04:44:26.493Z,4.90
2018-02-04T04:46:54.518Z,5.13
2018-02-04T04:49:22.863Z,5.43
2018-02-04T04:51:50.449Z,5.30
2018-02-04T04:54:18.031Z,5.20
2018-02-04T04:56:46.381Z,5.43
2018-02-04T04:59:13.952Z,4.70
2018-02-04T05:01:41.523Z,5.43
2018-02-04T05:04:09.116Z,5.27
2018-02-04T05:06:36.686Z,6.27
2018-02-04T05:09:04.290Z,5.23
2018-02-04T05:11:31.878Z,4.97
2018-02-04T05:14:00.937Z,5.40
2018-02-04T05:16:28.550Z,5.63
2018-02-04T05:18:56.258Z,5.50
2018-02-04T05:21:23.835Z,5.40
2018-02-04T05:23:51.434Z,5.57
2018-02-04T05:26:19.033Z,5.63
2018-02-04T05:28:47.360Z,6.83
2018-02-04T05:31:15.411Z,7.00
2018-02-04T05:33:42.997Z,6.43
2018-02-04T05:36:10.563Z,6.30
2018-02-04T05:38:38.610Z,5.93
2018-02-04T05:41:06.182Z,5.73
2018-02-04T05:43:33.764Z,5.53
2018-02-04T05:46:02.234Z,6.30
2018-02-04T05:48:29.820Z,7.50
2018-02-04T05:50:57.418Z,6.20
2018-02-04T05:53:24.992Z,6.13
2018-02-04T05:55:52.542Z,5.43
2018-02-04T05:58:20.126Z,5.60
2018-02-04T06:00:48.562Z,5.57
2018-02-04T06:03:16.140Z,6.07
2018-02-04T06:05:43.687Z,6.77
2018-02-04T06:08:11.270Z,6.53
2018-02-04T06:10:38.825Z,6.13
2018-02-04T06:13:06.453Z,6.10
2018-02-04T06:15:34.123Z,6.30
2018-02-04T06:18:01.710Z,6.30
2018-02-04T06:20:29.302Z,6.17
2018-02-04T06:22:56.914Z,6.47
2018-02-04T06:25:24.512Z,6.93
2018-02-04T06:27:52.140Z,7.63
2018-02-04T06:30:20.492Z,8.20
2018-02-04T06:32:48.624Z,7.00
2018-02-04T06:35:16.188Z,7.67
2018-02-04T06:37:44.518Z,7.70
2018-02-04T06:40:13.590Z,6.40
2018-02-04T06:42:41.166Z,5.97
2018-02-04T06:45:08.762Z,5.93
2018-02-04T06:47:37.141Z,6.23
2018-02-04T06:50:05.313Z,6.77
2018-02-04T06:52:32.953Z,7.03
2018-02-04T06:55:00.555Z,6.60
2018-02-04T06:57:28.143Z,6.00
2018-02-04T06:59:55.761Z,6.27
2018-02-04T07:02:23.317Z,6.70
2018-02-04T07:04:50.943Z,5.87
2018-02-04T07:07:18.528Z,7.13
2018-02-04T07:09:46.106Z,6.43
2018-02-04T07:12:14.552Z,7.67
2018-02-04T07:14:42.194Z,7.37
2018-02-04T07:17:09.789Z,6.80
2018-02-04T07:19:37.414Z,6.30
2018-02-04T07:22:05.303Z,6.70
2018-02-04T07:24:32.888Z,6.80
2018-02-04T07:27:00.449Z,7.57
2018-02-04T07:29:28.781Z,6.80
2018-02-04T07:31:56.345Z,10.23
2018-02-04T07:34:25.415Z,7.97
2018-02-04T07:36:53.005Z,8.30
2018-02-04T07:39:21.492Z,7.00
2018-02-04T07:41:50.745Z,6.57
2018-02-04T07:44:19.085Z,6.43
2018-02-04T07:46:46.662Z,6.73
2018-02-04T07:49:14.237Z,7.83
2018-02-04T07:51:43.287Z,6.97
2018-02-04T07:54:10.862Z,6.97
2018-02-04T07:56:38.428Z,6.53
2018-02-04T07:59:05.994Z,6.90
2018-02-04T08:01:34.332Z,28.20
2018-02-04T08:04:02.693Z,27.20
2018-02-04T08:06:30.293Z,11.17
2018-02-04T08:08:57.875Z,15.13
2018-02-04T08:11:26.023Z,12.20
2018-02-04T08:13:53.641Z,9.87
2018-02-04T08:16:21.211Z,12.20
2018-02-04T08:18:48.777Z,16.93
2018-02-04T08:21:16.358Z,20.50
2018-02-04T08:23:43.917Z,9.50
2018-02-04T08:26:11.611Z,21.30
2018-02-04T08:28:39.932Z,7.97
2018-02-04T08:31:07.964Z,17.23
2018-02-04T08:33:36.304Z,14.17
2018-02-04T08:36:03.900Z,9.60
2018-02-04T08:38:31.518Z,10.83
2018-02-04T08:40:59.128Z,10.80
2018-02-04T08:43:26.732Z,9.30
2018-02-04T08:45:54.392Z,13.63
2018-02-04T08:48:22.007Z,9.20
2018-02-04T08:50:49.604Z,7.17
2018-02-04T08:53:19.383Z,6.27
2018-02-04T08:55:46.991Z,8.70
2018-02-04T08:58:15.395Z,6.93
2018-02-04T09:00:43.053Z,6.37
2018-02-04T09:03:11.281Z,6.63
2018-02-04T09:05:38.898Z,7.00
2018-02-04T09:08:06.512Z,6.50
2018-02-04T09:10:34.201Z,6.73
2018-02-04T09:13:01.822Z,5.97
2018-02-04T09:15:29.439Z,5.90
2018-02-04T09:17:57.874Z,5.70
2018-02-04T09:20:25.470Z,6.10
2018-02-04T09:22:54.501Z,6.13
2018-02-04T09:25:22.136Z,5.70
2018-02-04T09:27:50.636Z,5.67
2018-02-04T09:30:19.072Z,4.83
2018-02-04T09:32:46.660Z,4.90
2018-02-04T09:35:14.274Z,5.20
2018-02-04T09:37:42.517Z,5.77
2018-02-04T09:40:10.723Z,5.60
2018-02-04T09:42:39.651Z,4.60
2018-02-04T09:45:07.239Z,5.57
2018-02-04T09:47:34.887Z,4.93
2018-02-04T09:50:03.056Z,4.70
2018-02-04T09:52:30.608Z,5.83
2018-02-04T09:54:58.961Z,4.77
2018-02-04T09:57:27.340Z,4.83
2018-02-04T09:59:55.799Z,5.30
2018-02-04T10:02:23.436Z,5.60
2018-02-04T10:04:51.086Z,4.60
2018-02-04T10:07:18.676Z,5.17
2018-02-04T10:09:46.266Z,4.97
2018-02-04T10:12:13.848Z,4.40
2018-02-04T10:14:41.466Z,4.67
2018-02-04T10:17:09.042Z,5.07
2018-02-04T10:19:37.373Z,5.20
2018-02-04T10:22:05.739Z,5.00
2018-02-04T10:24:33.350Z,4.83
2018-02-04T10:27:00.931Z,4.97
2018-02-04T10:29:28.480Z,4.17
2018-02-04T10:31:56.068Z,4.67
2018-02-04T10:34:23.642Z,5.07
2018-02-04T10:36:51.209Z,5.50
2018-02-04T10:39:18.770Z,4.33
2018-02-04T10:41:46.356Z,5.00
2018-02-04T10:44:13.930Z,4.70
2018-02-04T10:46:41.493Z,5.17
2018-02-04T10:49:09.088Z,5.53
2018-02-04T10:51:42.280Z,5.00
2018-02-04T10:54:09.865Z,4.50
2018-02-04T10:56:37.402Z,4.97
2018-02-04T10:59:05.760Z,4.83
2018-02-04T11:01:33.980Z,4.87
2018-02-04T11:04:01.585Z,4.97
2018-02-04T11:06:29.186Z,6.80
2018-02-04T11:08:57.563Z,5.50
2018-02-04T11:11:25.209Z,4.80
2018-02-04T11:13:52.799Z,6.67
2018-02-04T11:16:20.388Z,5.70
2018-02-04T11:18:47.979Z,6.53
2018-02-04T11:21:15.536Z,4.80
2018-02-04T11:23:43.112Z,5.10
2018-02-04T11:26:10.690Z,4.43
2018-02-04T11:28:38.248Z,4.23
2018-02-04T11:31:17.636Z,5.27
2018-02-04T11:33:46.000Z,4.70
2018-02-04T11:36:14.368Z,5.40
2018-02-04T11:38:41.935Z,4.87
2018-02-04T11:41:11.360Z,4.83
2018-02-04T11:43:40.117Z,4.70
2018-02-04T11:46:07.724Z,4.53
2018-02-04T11:48:36.095Z,4.73
2018-02-04T11:51:03.690Z,5.03
2018-02-04T11:53:31.309Z,5.17
2018-02-04T11:55:58.898Z,4.73
2018-02-04T11:58:26.501Z,4.30
2018-02-04T12:00:54.179Z,4.70
2018-02-04T12:03:23.067Z,4.20
2018-02-04T12:05:51.335Z,4.60
2018-02-04T12:08:18.903Z,4.73
2018-02-04T12:10:46.465Z,4.67
2018-02-04T12:13:14.101Z,5.87
2018-02-04T12:15:43.398Z,4.87
2018-02-04T12:18:11.074Z,4.87
2018-02-04T12:20:38.654Z,4.67
2018-02-04T12:23:08.755Z,5.80
2018-02-04T12:25:37.110Z,5.47
2018-02-04T12:28:04.674Z,5.23
2018-02-04T12:30:32.286Z,5.77
2018-02-04T12:32:59.861Z,5.33
2018-02-04T12:35:27.424Z,6.03
2018-02-04T12:37:56.041Z,5.20
2018-02-04T12:40:24.325Z,5.53
2018-02-04T12:42:51.940Z,5.43
2018-02-04T12:45:20.307Z,5.80
2018-02-04T12:47:48.461Z,5.20
2018-02-04T12:50:16.019Z,5.37
2018-02-04T12:52:43.653Z,5.33
2018-02-04T12:55:11.207Z,5.40
2018-02-04T12:57:39.513Z,5.50
2018-02-04T13:00:07.130Z,4.93
2018-02-04T13:02:34.693Z,5.10
2018-02-04T13:05:02.630Z,4.93
2018-02-04T13:07:30.222Z,5.17
2018-02-04T13:09:57.826Z,5.20
2018-02-04T13:12:25.435Z,5.53
2018-02-04T13:14:53.032Z,5.30
2018-02-04T13:17:22.001Z,4.97
2018-02-04T13:19:49.584Z,5.30
2018-02-04T13:22:18.065Z,4.87
2018-02-04T13:24:45.635Z,5.30
2018-02-04T13:27:13.227Z,6.03
2018-02-04T13:29:40.865Z,4.73
2018-02-04T13:32:08.431Z,5.17
2018-02-04T13:34:36.017Z,5.20
2018-02-04T13:37:03.609Z,4.90
2018-02-04T13:39:31.210Z,5.10
2018-02-04T13:41:58.792Z,5.07
2018-02-04T13:44:26.448Z,4.97
2018-02-04T13:46:54.072Z,4.83
2018-02-04T13:49:21.656Z,5.40
2018-02-04T13:51:49.279Z,4.90
2018-02-04T13:54:17.587Z,4.87
2018-02-04T13:56:45.205Z,5.03
2018-02-04T13:59:13.554Z,5.17
2018-02-04T14:01:41.207Z,4.33
2018-02-04T14:04:08.815Z,4.10
2018-02-04T14:06:36.391Z,5.17
2018-02-04T14:09:04.770Z,4.80
2018-02-04T14:11:33.205Z,4.50
2018-02-04T14:14:00.861Z,5.10
2018-02-04T14:16:28.434Z,4.33
2018-02-04T14:18:56.009Z,5.57
2018-02-04T14:21:23.598Z,5.13
2018-02-04T14:23:51.970Z,4.70
2018-02-04T14:26:19.544Z,5.30
2018-02-04T14:28:47.100Z,5.10
2018-02-04T14:31:14.682Z,4.90
2018-02-04T14:33:42.288Z,4.43
2018-02-04T14:36:09.879Z,5.43
2018-02-04T14:38:37.457Z,5.00
2018-02-04T14:41:05.031Z,4.93
2018-02-04T14:43:32.662Z,4.90
2018-02-04T14:46:00.234Z,4.97
2018-02-04T14:48:27.821Z,5.33
2018-02-04T14:50:55.439Z,6.50
2018-02-04T14:53:23.011Z,5.40
2018-02-04T14:55:50.599Z,5.13
2018-02-04T14:58:18.170Z,6.13
2018-02-04T15:00:46.923Z,6.50
2018-02-04T15:03:15.302Z,5.77
2018-02-04T15:05:43.656Z,6.73
2018-02-04T15:08:11.256Z,5.70
2018-02-04T15:10:38.835Z,14.03
2018-02-04T15:13:06.450Z,11.10
2018-02-04T15:15:34.032Z,5.20
2018-02-04T15:18:02.381Z,5.97
2018-02-04T15:20:29.968Z,5.43
2018-02-04T15:22:57.535Z,5.70
2018-02-04T15:25:25.121Z,6.60
2018-02-04T15:27:54.817Z,6.20
2018-02-04T15:30:23.189Z,6.80
2018-02-04T15:32:50.815Z,6.40
2018-02-04T15:35:18.389Z,6.13
2018-02-04T15:37:45.967Z,6.00
2018-02-04T15:40:13.574Z,5.93
2018-02-04T15:42:41.156Z,6.90
2018-02-04T15:45:08.770Z,6.10
2018-02-04T15:47:36.370Z,5.30
2018-02-04T15:50:04.725Z,6.53
2018-02-04T15:52:32.305Z,5.67
2018-02-04T15:55:00.686Z,6.43
2018-02-04T15:57:29.136Z,6.10
2018-02-04T15:59:56.826Z,6.50
2018-02-04T16:02:24.452Z,6.50
2018-02-04T16:04:52.042Z,6.37
2018-02-04T16:07:19.609Z,6.70
2018-02-04T16:09:47.333Z,6.73
2018-02-04T16:12:14.925Z,6.53
2018-02-04T16:14:42.501Z,6.93
2018-02-04T16:17:10.103Z,6.73
2018-02-04T16:19:38.549Z,7.30
2018-02-04T16:22:06.217Z,6.63
2018-02-04T16:24:33.857Z,6.63
2018-02-04T16:27:01.457Z,8.07
2018-02-04T16:29:29.028Z,7.10
2018-02-04T16:31:56.632Z,7.57
2018-02-04T16:34:24.248Z,7.00
2018-02-04T16:36:52.384Z,6.67
2018-02-04T16:39:19.980Z,6.53
2018-02-04T16:41:47.973Z,7.43
2018-02-04T16:44:15.571Z,7.90
2018-02-04T16:46:43.925Z,9.47
2018-02-04T16:49:11.501Z,7.70
2018-02-04T16:51:41.222Z,13.37
2018-02-04T16:54:08.918Z,9.43
2018-02-04T16:56:36.521Z,10.53
2018-02-04T16:59:04.116Z,9.93
2018-02-04T17:01:32.479Z,8.77
2018-02-04T17:04:00.040Z,8.97
2018-02-04T17:06:27.695Z,11.00
2018-02-04T17:08:55.914Z,12.80
2018-02-04T17:11:24.252Z,9.50
2018-02-04T17:13:51.820Z,10.20
2018-02-04T17:16:19.450Z,10.40
2018-02-04T17:18:47.776Z,9.63
2018-02-04T17:21:15.361Z,11.40
2018-02-04T17:23:42.966Z,9.93
2018-02-04T17:26:10.548Z,9.87
2018-02-04T17:28:38.126Z,10.20
2018-02-04T17:31:05.726Z,9.97
2018-02-04T17:33:34.622Z,10.10
2018-02-04T17:36:03.107Z,10.80
2018-02-04T17:38:30.703Z,9.60
2018-02-04T17:40:58.271Z,10.20
2018-02-04T17:43:25.883Z,9.80
2018-02-04T17:45:53.468Z,9.17
2018-02-04T17:48:21.055Z,8.80
2018-02-04T17:50:49.382Z,9.80
2018-02-04T17:53:17.009Z,9.30
2018-02-04T17:55:44.582Z,9.30
2018-02-04T17:58:12.206Z,10.50
2018-02-04T18:00:40.420Z,11.03
2018-02-04T18:03:08.000Z,9.53
2018-02-04T18:05:35.592Z,9.67
2018-02-04T18:08:04.092Z,9.93
2018-02-04T18:10:31.710Z,13.00
2018-02-04T18:12:59.382Z,10.87
2018-02-04T18:15:26.979Z,11.07
2018-02-04T18:17:54.579Z,11.37
2018-02-04T18:20:22.175Z,11.43
2018-02-04T18:22:50.525Z,12.53
2018-02-04T18:25:18.112Z,13.47
2018-02-04T18:27:46.272Z,11.33
2018-02-04T18:30:14.496Z,11.67
2018-02-04T18:32:42.056Z,15.03
2018-02-04T18:35:09.631Z,21.20
2018-02-04T18:37:37.237Z,11.87
2018-02-04T18:40:05.604Z,12.13
2018-02-04T18:42:33.197Z,12.00
2018-02-04T18:45:01.594Z,11.50
2018-02-04T18:47:29.934Z,12.07
2018-02-04T18:49:57.668Z,14.43
2018-02-04T18:52:25.288Z,11.97
2018-02-04T18:54:52.873Z,12.53
2018-02-04T18:57:20.482Z,13.23
2018-02-04T18:59:48.067Z,12.33
2018-02-04T19:02:15.732Z,12.67
2018-02-04T19:04:43.351Z,12.67
2018-02-04T19:07:10.917Z,13.80
2018-02-04T19:09:39.371Z,13.33
2018-02-04T19:12:07.001Z,12.60
2018-02-04T19:14:34.575Z,13.33
2018-02-04T19:17:02.148Z,15.47
2018-02-04T19:19:30.577Z,12.67
2018-02-04T19:21:58.228Z,12.33
2018-02-04T19:24:26.551Z,12.40
2018-02-04T19:26:54.143Z,11.60
2018-02-04T19:29:21.760Z,12.07
2018-02-04T19:31:49.338Z,12.77
2018-02-04T19:34:16.992Z,13.63
2018-02-04T19:36:44.618Z,12.47
2018-02-04T19:39:12.216Z,13.53
2018-02-04T19:41:39.837Z,12.93
2018-02-04T19:44:07.416Z,12.90
2018-02-04T19:46:35.017Z,12.13
2018-02-04T19:49:02.663Z,12.77
2018-02-04T19:51:30.299Z,12.80
2018-02-04T19:53:58.131Z,12.50
2018-02-04T19:56:25.782Z,12.73
2018-02-04T19:58:53.425Z,12.67
2018-02-04T20:01:21.917Z,13.53
2018-02-04T20:03:50.821Z,13.50
2018-02-04T20:06:19.249Z,12.40
2018-02-04T20:08:46.845Z,15.00
2018-02-04T20:11:15.675Z,14.30
2018-02-04T20:13:43.320Z,14.17
2018-02-04T20:16:11.750Z,14.07
2018-02-04T20:18:40.552Z,12.87
2018-02-04T20:21:08.160Z,14.30
2018-02-04T20:23:35.812Z,13.47
2018-02-04T20:26:03.466Z,12.67
2018-02-04T20:28:31.075Z,13.60
2018-02-04T20:30:58.721Z,12.67
2018-02-04T20:33:26.407Z,12.73
2018-02-04T20:35:54.039Z,13.63
2018-02-04T20:38:21.649Z,12.67
2018-02-04T20:40:49.329Z,14.03
2018-02-04T20:43:16.975Z,13.23
2018-02-04T20:45:45.369Z,12.73
2018-02-04T20:48:13.012Z,13.43
2018-02-04T20:50:41.368Z,13.03
2018-02-04T20:53:08.940Z,15.00
2018-02-04T20:55:36.560Z,14.40
2018-02-04T20:58:04.194Z,12.20
2018-02-04T21:00:32.526Z,13.60
2018-02-04T21:03:00.871Z,13.60
2018-02-04T21:05:29.349Z,13.33
2018-02-04T21:07:57.765Z,13.43
2018-02-04T21:10:25.372Z,13.40
2018-02-04T21:12:52.939Z,12.50
2018-02-04T21:15:21.681Z,13.70
2018-02-04T21:17:49.263Z,13.43
2018-02-04T21:20:16.836Z,12.00
2018-02-04T21:22:45.970Z,13.77
2018-02-04T21:25:15.270Z,13.83
2018-02-04T21:27:43.628Z,13.33
2018-02-04T21:30:12.227Z,13.03
2018-02-04T21:32:39.821Z,14.17
2018-02-04T21:35:08.194Z,14.30
2018-02-04T21:37:36.548Z,15.97
2018-02-04T21:40:04.136Z,13.93
2018-02-04T21:42:31.714Z,15.17
2018-02-04T21:45:00.079Z,15.00
2018-02-04T21:47:27.660Z,14.07
2018-02-04T21:49:56.123Z,15.80
2018-02-04T21:52:23.759Z,15.53
2018-02-04T21:54:51.629Z,14.57
2018-02-04T21:57:21.783Z,14.83
2018-02-04T21:59:49.333Z,15.73
2018-02-04T22:02:16.887Z,17.00
2018-02-04T22:04:45.357Z,16.10
2018-02-04T22:07:13.736Z,15.77
2018-02-04T22:09:41.304Z,15.90
2018-02-04T22:12:08.900Z,16.30
2018-02-04T22:14:36.622Z,16.07
2018-02-04T22:17:04.176Z,15.90
2018-02-04T22:19:31.766Z,15.13
2018-02-04T22:21:59.362Z,14.60
2018-02-04T22:24:27.070Z,13.90
2018-02-04T22:26:54.799Z,13.00
2018-02-04T22:29:22.367Z,12.63
2018-02-04T22:31:49.922Z,13.23
2018-02-04T22:34:17.530Z,12.53
2018-02-04T22:36:45.873Z,11.90
2018-02-04T22:39:13.433Z,12.27
2018-02-04T22:41:41.015Z,12.47
2018-02-04T22:44:08.598Z,12.77
2018-02-04T22:46:36.947Z,12.17
2018-02-04T22:49:05.911Z,12.43
2018-02-04T22:51:33.471Z,12.10
2018-02-04T22:54:01.036Z,13.20
2018-02-04T22:56:29.509Z,12.60
2018-02-04T22:58:57.057Z,13.70
2018-02-04T23:01:25.378Z,14.73
2018-02-04T23:03:52.955Z,14.00
2018-02-04T23:06:21.375Z,14.73
2018-02-04T23:08:48.926Z,14.40
2018-02-04T23:11:16.532Z,14.53
2018-02-04T23:13:44.919Z,14.23
2018-02-04T23:16:12.445Z,12.80
2018-02-04T23:18:40.031Z,15.17
2018-02-04T23:21:08.402Z,14.33
2018-02-04T23:23:35.981Z,14.80
2018-02-04T23:26:04.359Z,14.63
2018-02-04T23:28:32.709Z,15.57
2018-02-04T23:31:00.300Z,13.90
2018-02-04T23:33:28.647Z,15.03
2018-02-04T23:35:56.209Z,15.33
2018-02-04T23:38:24.605Z,14.30
2018-02-04T23:40:52.187Z,14.63
2018-02-04T23:43:19.768Z,14.53
2018-02-04T23:45:47.350Z,15.70
2018-02-04T23:48:14.924Z,15.13
2018-02-04T23:50:42.496Z,15.17
2018-02-04T23:53:10.076Z,16.73
2018-02-04T23:55:37.693Z,14.90
2018-02-04T23:58:07.470Z,16.20
